This is the latest recevied weather packets stored in our database for station/object HI3LT-16. If no packets are shown the sender has not sent any weather packets the latest 10 day(s).
| Time | Temp. | Humidity | Pressure | Rain* | Wind** | Luminosity | Snow |
|---|---|---|---|---|---|---|---|
| 1777246271 | 22.22° C | 98% | 1013 hPa | 0 mm | - | - | - |
| 1777245670 | 22.22° C | 97% | 1012 hPa | 0 mm | - | - | - |
| 1777245069 | 22.78° C | 96% | 1012 hPa | 0.76 mm | - | - | - |
| 1777244468 | 23.33° C | 93% | 1012 hPa | 0.51 mm | - | - | - |
| 1777243868 | 23.33° C | 92% | 1012 hPa | 0.51 mm | - | - | - |
| 1777243267 | 23.33° C | 91% | 1012 hPa | 0 mm | - | - | - |
| 1777242666 | 23.89° C | 90% | 1011 hPa | 0 mm | - | - | - |
| 1777242065 | 23.89° C | 90% | 1011 hPa | 0 mm | - | - | - |
| 1777241464 | 24.44° C | 87% | 1011 hPa | 0 mm | - | - | - |
| 1777240864 | 25° C | 83% | 1011 hPa | 0 mm | - | - | - |
| 1777240263 | 25° C | 83% | 1011 hPa | 0 mm | - | - | - |
| 1777239662 | 25° C | 83% | 1011 hPa | 0 mm | - | - | - |
| 1777239061 | 25° C | 83% | 1011 hPa | 0 mm | - | - | - |
| 1777238460 | 25° C | 83% | 1011 hPa | 0 mm | - | - | - |
| 1777237859 | 28.33° C | 64% | 1011 hPa | 0 mm | - | - | - |
| 1777237258 | 28.33° C | 64% | 1011 hPa | 0 mm | - | - | - |
| 1777236658 | 28.33° C | 64% | 1011 hPa | 0.25 mm | - | - | - |
| 1777236057 | 28.33° C | 64% | 1011 hPa | 0 mm | - | - | - |
| 1777235456 | 28.33° C | 63% | 1011 hPa | 0 mm | - | - | - |
| 1777234855 | 28.89° C | 62% | 1011 hPa | 0 mm | - | - | - |
| 1777234255 | 29.44° C | 61% | 1011 hPa | 0 mm | - | - | - |
| 1777233654 | 30° C | 59% | 1011 hPa | 0 mm | - | - | - |
| 1777233053 | 30° C | 60% | 1011 hPa | 0 mm | - | - | - |
| 1777232453 | 30° C | 61% | 1011 hPa | 0 mm | - | - | - |
| 1777231852 | 30° C | 61% | 1011 hPa | 0.25 mm | - | - | - |
* Rain latest hour (hover to see other rain measurements)
** Current wind speed in m/s (hover to see current wind gust speed)